<?xml version="1.0" encoding="UTF-8" standalone="no" ?>
<gpx xmlns="http://www.topografix.com/GPX/1/1" xmlns:xsi="http://www.w3.org/2001/XMLSchema-instance" xsi:schemaLocation="http://www.topografix.com/GPX/1/1 http://www.topografix.com/GPX/1/1/gpx.xsd" version="1.1" creator="VisuGPX - https://www.visugpx.com">
  <metadata>
    <name>Le val sans retour</name>
    <desc><![CDATA[Promenade autour de Tréhorenteuc et du fond du val sans retour , passage par l'arbre d'or et jolis panoramas sur les landes.]]></desc>
  </metadata>
  <trk>
    <name><![CDATA[ARBRE D OR 13:26:00]]></name>
    <trkseg>
      <trkpt lat="48.00571" lon="-2.28666">
        <ele>43.4</ele>
        <time>2016-07-06T07:44:48Z</time>
      </trkpt>
      <trkpt lat="48.00572" lon="-2.28667">
        <ele>68.87</ele>
        <time>2016-07-06T07:45:18Z</time>
      </trkpt>
      <trkpt lat="48.00575" lon="-2.28669">
        <ele>81.37</ele>
        <time>2016-07-06T07:45:48Z</time>
      </trkpt>
      <trkpt lat="48.00577" lon="-2.28659">
        <ele>87.62</ele>
        <time>2016-07-06T07:46:18Z</time>
      </trkpt>
      <trkpt lat="48.00588" lon="-2.28658">
        <ele>90.02</ele>
        <time>2016-07-06T07:46:48Z</time>
      </trkpt>
      <trkpt lat="48.00618" lon="-2.28639">
        <ele>90.98</ele>
        <time>2016-07-06T07:47:18Z</time>
      </trkpt>
      <trkpt lat="48.00651" lon="-2.28636">
        <ele>92.42</ele>
        <time>2016-07-06T07:47:48Z</time>
      </trkpt>
      <trkpt lat="48.00666" lon="-2.28632">
        <ele>93.39</ele>
        <time>2016-07-06T07:48:18Z</time>
      </trkpt>
      <trkpt lat="48.00666" lon="-2.28636">
        <ele>93.39</ele>
        <time>2016-07-06T07:48:48Z</time>
      </trkpt>
      <trkpt lat="48.00639" lon="-2.28632">
        <ele>92.42</ele>
        <time>2016-07-06T07:49:18Z</time>
      </trkpt>
      <trkpt lat="48.00602" lon="-2.28609">
        <ele>91.94</ele>
        <time>2016-07-06T07:49:48Z</time>
      </trkpt>
      <trkpt lat="48.00579" lon="-2.2858">
        <ele>93.39</ele>
        <time>2016-07-06T07:50:18Z</time>
      </trkpt>
      <trkpt lat="48.00551" lon="-2.28546">
        <ele>94.83</ele>
        <time>2016-07-06T07:50:48Z</time>
      </trkpt>
      <trkpt lat="48.00526" lon="-2.28514">
        <ele>96.27</ele>
        <time>2016-07-06T07:51:18Z</time>
      </trkpt>
      <trkpt lat="48.00502" lon="-2.28486">
        <ele>98.67</ele>
        <time>2016-07-06T07:51:48Z</time>
      </trkpt>
      <trkpt lat="48.00478" lon="-2.28455">
        <ele>101.56</ele>
        <time>2016-07-06T07:52:18Z</time>
      </trkpt>
      <trkpt lat="48.00452" lon="-2.28432">
        <ele>104.44</ele>
        <time>2016-07-06T07:52:48Z</time>
      </trkpt>
      <trkpt lat="48.0043" lon="-2.28409">
        <ele>107.32</ele>
        <time>2016-07-06T07:53:18Z</time>
      </trkpt>
      <trkpt lat="48.00421" lon="-2.28366">
        <ele>111.65</ele>
        <time>2016-07-06T07:53:48Z</time>
      </trkpt>
      <trkpt lat="48.00413" lon="-2.2833">
        <ele>116.94</ele>
        <time>2016-07-06T07:54:18Z</time>
      </trkpt>
      <trkpt lat="48.00404" lon="-2.2829">
        <ele>120.78</ele>
        <time>2016-07-06T07:54:48Z</time>
      </trkpt>
      <trkpt lat="48.00389" lon="-2.28271">
        <ele>124.15</ele>
        <time>2016-07-06T07:55:18Z</time>
      </trkpt>
      <trkpt lat="48.00367" lon="-2.28246">
        <ele>128.95</ele>
        <time>2016-07-06T07:55:48Z</time>
      </trkpt>
      <trkpt lat="48.00344" lon="-2.28227">
        <ele>132.8</ele>
        <time>2016-07-06T07:56:18Z</time>
      </trkpt>
      <trkpt lat="48.0033" lon="-2.28223">
        <ele>133.76</ele>
        <time>2016-07-06T07:56:48Z</time>
      </trkpt>
      <trkpt lat="48.00328" lon="-2.28229">
        <ele>132.32</ele>
        <time>2016-07-06T07:57:18Z</time>
      </trkpt>
      <trkpt lat="48.0033" lon="-2.28222">
        <ele>134.24</ele>
        <time>2016-07-06T07:57:48Z</time>
      </trkpt>
      <trkpt lat="48.00332" lon="-2.28234">
        <ele>132.32</ele>
        <time>2016-07-06T07:58:18Z</time>
      </trkpt>
      <trkpt lat="48.00332" lon="-2.28225">
        <ele>131.84</ele>
        <time>2016-07-06T07:58:48Z</time>
      </trkpt>
      <trkpt lat="48.00331" lon="-2.28237">
        <ele>132.32</ele>
        <time>2016-07-06T07:59:18Z</time>
      </trkpt>
      <trkpt lat="48.00323" lon="-2.28234">
        <ele>131.84</ele>
        <time>2016-07-06T07:59:48Z</time>
      </trkpt>
      <trkpt lat="48.00305" lon="-2.28268">
        <ele>130.4</ele>
        <time>2016-07-06T08:00:18Z</time>
      </trkpt>
      <trkpt lat="48.00283" lon="-2.28298">
        <ele>128.95</ele>
        <time>2016-07-06T08:00:48Z</time>
      </trkpt>
      <trkpt lat="48.00256" lon="-2.2833">
        <ele>130.88</ele>
        <time>2016-07-06T08:01:18Z</time>
      </trkpt>
      <trkpt lat="48.00229" lon="-2.28368">
        <ele>130.4</ele>
        <time>2016-07-06T08:01:48Z</time>
      </trkpt>
      <trkpt lat="48.00209" lon="-2.28368">
        <ele>130.88</ele>
        <time>2016-07-06T08:02:18Z</time>
      </trkpt>
      <trkpt lat="48.00205" lon="-2.28365">
        <ele>130.4</ele>
        <time>2016-07-06T08:02:48Z</time>
      </trkpt>
      <trkpt lat="48.00203" lon="-2.28349">
        <ele>130.88</ele>
        <time>2016-07-06T08:03:18Z</time>
      </trkpt>
      <trkpt lat="48.00185" lon="-2.28311">
        <ele>134.72</ele>
        <time>2016-07-06T08:03:48Z</time>
      </trkpt>
      <trkpt lat="48.00166" lon="-2.28277">
        <ele>139.53</ele>
        <time>2016-07-06T08:04:18Z</time>
      </trkpt>
      <trkpt lat="48.00152" lon="-2.28243">
        <ele>142.89</ele>
        <time>2016-07-06T08:04:48Z</time>
      </trkpt>
      <trkpt lat="48.00148" lon="-2.28241">
        <ele>142.89</ele>
        <time>2016-07-06T08:05:18Z</time>
      </trkpt>
      <trkpt lat="48.00148" lon="-2.28239">
        <ele>142.89</ele>
        <time>2016-07-06T08:05:48Z</time>
      </trkpt>
      <trkpt lat="48.00164" lon="-2.282">
        <ele>145.3</ele>
        <time>2016-07-06T08:06:18Z</time>
      </trkpt>
      <trkpt lat="48.00175" lon="-2.2817">
        <ele>145.3</ele>
        <time>2016-07-06T08:06:48Z</time>
      </trkpt>
      <trkpt lat="48.00195" lon="-2.28127">
        <ele>145.78</ele>
        <time>2016-07-06T08:07:18Z</time>
      </trkpt>
      <trkpt lat="48.00206" lon="-2.28079">
        <ele>147.7</ele>
        <time>2016-07-06T08:07:48Z</time>
      </trkpt>
      <trkpt lat="48.00221" lon="-2.28032">
        <ele>148.66</ele>
        <time>2016-07-06T08:08:18Z</time>
      </trkpt>
      <trkpt lat="48.00231" lon="-2.27985">
        <ele>150.1</ele>
        <time>2016-07-06T08:08:48Z</time>
      </trkpt>
      <trkpt lat="48.00244" lon="-2.2794">
        <ele>151.54</ele>
        <time>2016-07-06T08:09:18Z</time>
      </trkpt>
      <trkpt lat="48.00238" lon="-2.2791">
        <ele>152.03</ele>
        <time>2016-07-06T08:09:48Z</time>
      </trkpt>
      <trkpt lat="48.00219" lon="-2.27885">
        <ele>154.91</ele>
        <time>2016-07-06T08:10:18Z</time>
      </trkpt>
      <trkpt lat="48.00207" lon="-2.27874">
        <ele>156.83</ele>
        <time>2016-07-06T08:10:48Z</time>
      </trkpt>
      <trkpt lat="48.00201" lon="-2.27871">
        <ele>156.83</ele>
        <time>2016-07-06T08:11:18Z</time>
      </trkpt>
      <trkpt lat="48.00201" lon="-2.27874">
        <ele>156.35</ele>
        <time>2016-07-06T08:11:48Z</time>
      </trkpt>
      <trkpt lat="48.00201" lon="-2.27874">
        <ele>156.35</ele>
        <time>2016-07-06T08:12:18Z</time>
      </trkpt>
      <trkpt lat="48.00202" lon="-2.27872">
        <ele>156.83</ele>
        <time>2016-07-06T08:12:48Z</time>
      </trkpt>
      <trkpt lat="48.00202" lon="-2.27873">
        <ele>157.31</ele>
        <time>2016-07-06T08:13:18Z</time>
      </trkpt>
      <trkpt lat="48.00201" lon="-2.27877">
        <ele>157.31</ele>
        <time>2016-07-06T08:13:48Z</time>
      </trkpt>
      <trkpt lat="48.00201" lon="-2.27876">
        <ele>157.31</ele>
        <time>2016-07-06T08:14:18Z</time>
      </trkpt>
      <trkpt lat="48.00201" lon="-2.27877">
        <ele>157.79</ele>
        <time>2016-07-06T08:14:48Z</time>
      </trkpt>
      <trkpt lat="48.00202" lon="-2.27876">
        <ele>157.31</ele>
        <time>2016-07-06T08:15:18Z</time>
      </trkpt>
      <trkpt lat="48.00201" lon="-2.27878">
        <ele>157.79</ele>
        <time>2016-07-06T08:15:48Z</time>
      </trkpt>
      <trkpt lat="48.002" lon="-2.27875">
        <ele>157.79</ele>
        <time>2016-07-06T08:16:18Z</time>
      </trkpt>
      <trkpt lat="48.00203" lon="-2.27876">
        <ele>158.27</ele>
        <time>2016-07-06T08:16:48Z</time>
      </trkpt>
      <trkpt lat="48.00204" lon="-2.27872">
        <ele>159.24</ele>
        <time>2016-07-06T08:17:18Z</time>
      </trkpt>
      <trkpt lat="48.00202" lon="-2.27874">
        <ele>158.27</ele>
        <time>2016-07-06T08:17:48Z</time>
      </trkpt>
      <trkpt lat="48.00199" lon="-2.27852">
        <ele>157.79</ele>
        <time>2016-07-06T08:18:18Z</time>
      </trkpt>
      <trkpt lat="48.00183" lon="-2.27813">
        <ele>155.87</ele>
        <time>2016-07-06T08:18:48Z</time>
      </trkpt>
      <trkpt lat="48.00181" lon="-2.27808">
        <ele>154.91</ele>
        <time>2016-07-06T08:19:18Z</time>
      </trkpt>
      <trkpt lat="48.0018" lon="-2.27807">
        <ele>154.91</ele>
        <time>2016-07-06T08:19:48Z</time>
      </trkpt>
      <trkpt lat="48.00181" lon="-2.27807">
        <ele>154.91</ele>
        <time>2016-07-06T08:20:18Z</time>
      </trkpt>
      <trkpt lat="48.0018" lon="-2.27808">
        <ele>155.39</ele>
        <time>2016-07-06T08:20:48Z</time>
      </trkpt>
      <trkpt lat="48.00181" lon="-2.27811">
        <ele>156.35</ele>
        <time>2016-07-06T08:21:18Z</time>
      </trkpt>
      <trkpt lat="48.00184" lon="-2.27818">
        <ele>156.83</ele>
        <time>2016-07-06T08:21:48Z</time>
      </trkpt>
      <trkpt lat="48.0017" lon="-2.27865">
        <ele>156.35</ele>
        <time>2016-07-06T08:22:18Z</time>
      </trkpt>
      <trkpt lat="48.00155" lon="-2.27911">
        <ele>154.91</ele>
        <time>2016-07-06T08:22:48Z</time>
      </trkpt>
      <trkpt lat="48.00137" lon="-2.27935">
        <ele>151.06</ele>
        <time>2016-07-06T08:23:18Z</time>
      </trkpt>
      <trkpt lat="48.00115" lon="-2.27932">
        <ele>151.06</ele>
        <time>2016-07-06T08:23:48Z</time>
      </trkpt>
      <trkpt lat="48.00114" lon="-2.27944">
        <ele>152.03</ele>
        <time>2016-07-06T08:24:18Z</time>
      </trkpt>
      <trkpt lat="48.00115" lon="-2.27952">
        <ele>152.03</ele>
        <time>2016-07-06T08:24:48Z</time>
      </trkpt>
      <trkpt lat="48.0011" lon="-2.2796">
        <ele>152.03</ele>
        <time>2016-07-06T08:25:18Z</time>
      </trkpt>
      <trkpt lat="48.00099" lon="-2.28003">
        <ele>150.58</ele>
        <time>2016-07-06T08:25:48Z</time>
      </trkpt>
      <trkpt lat="48.00087" lon="-2.28047">
        <ele>148.66</ele>
        <time>2016-07-06T08:26:18Z</time>
      </trkpt>
      <trkpt lat="48.00077" lon="-2.28094">
        <ele>149.14</ele>
        <time>2016-07-06T08:26:48Z</time>
      </trkpt>
      <trkpt lat="48.00079" lon="-2.28136">
        <ele>146.26</ele>
        <time>2016-07-06T08:27:18Z</time>
      </trkpt>
      <trkpt lat="48.00071" lon="-2.28169">
        <ele>145.3</ele>
        <time>2016-07-06T08:27:48Z</time>
      </trkpt>
      <trkpt lat="48.00056" lon="-2.28174">
        <ele>145.78</ele>
        <time>2016-07-06T08:28:18Z</time>
      </trkpt>
      <trkpt lat="48.00061" lon="-2.28175">
        <ele>145.3</ele>
        <time>2016-07-06T08:28:48Z</time>
      </trkpt>
      <trkpt lat="48.00062" lon="-2.28179">
        <ele>145.78</ele>
        <time>2016-07-06T08:29:18Z</time>
      </trkpt>
      <trkpt lat="48.0007" lon="-2.28188">
        <ele>144.34</ele>
        <time>2016-07-06T08:29:48Z</time>
      </trkpt>
      <trkpt lat="48.00093" lon="-2.28216">
        <ele>144.34</ele>
        <time>2016-07-06T08:30:18Z</time>
      </trkpt>
      <trkpt lat="48.00108" lon="-2.2826">
        <ele>141.93</ele>
        <time>2016-07-06T08:30:48Z</time>
      </trkpt>
      <trkpt lat="48.00102" lon="-2.28306">
        <ele>139.53</ele>
        <time>2016-07-06T08:31:18Z</time>
      </trkpt>
      <trkpt lat="48.00094" lon="-2.28358">
        <ele>136.64</ele>
        <time>2016-07-06T08:31:48Z</time>
      </trkpt>
      <trkpt lat="48.00093" lon="-2.28405">
        <ele>135.68</ele>
        <time>2016-07-06T08:32:18Z</time>
      </trkpt>
      <trkpt lat="48.00106" lon="-2.28423">
        <ele>135.68</ele>
        <time>2016-07-06T08:32:48Z</time>
      </trkpt>
      <trkpt lat="48.00103" lon="-2.28429">
        <ele>135.68</ele>
        <time>2016-07-06T08:33:18Z</time>
      </trkpt>
      <trkpt lat="48.00103" lon="-2.2843">
        <ele>134.72</ele>
        <time>2016-07-06T08:33:48Z</time>
      </trkpt>
      <trkpt lat="48.00106" lon="-2.28428">
        <ele>134.24</ele>
        <time>2016-07-06T08:34:18Z</time>
      </trkpt>
      <trkpt lat="48.00106" lon="-2.28426">
        <ele>133.76</ele>
        <time>2016-07-06T08:34:48Z</time>
      </trkpt>
      <trkpt lat="48.00108" lon="-2.28424">
        <ele>134.24</ele>
        <time>2016-07-06T08:35:18Z</time>
      </trkpt>
      <trkpt lat="48.00105" lon="-2.28424">
        <ele>134.24</ele>
        <time>2016-07-06T08:35:48Z</time>
      </trkpt>
      <trkpt lat="48.00105" lon="-2.28421">
        <ele>134.24</ele>
        <time>2016-07-06T08:36:18Z</time>
      </trkpt>
      <trkpt lat="48.00104" lon="-2.2842">
        <ele>134.72</ele>
        <time>2016-07-06T08:36:48Z</time>
      </trkpt>
      <trkpt lat="48.00103" lon="-2.28427">
        <ele>133.76</ele>
        <time>2016-07-06T08:37:18Z</time>
      </trkpt>
      <trkpt lat="48.0012" lon="-2.28456">
        <ele>128.95</ele>
        <time>2016-07-06T08:37:48Z</time>
      </trkpt>
      <trkpt lat="48.00127" lon="-2.28487">
        <ele>124.15</ele>
        <time>2016-07-06T08:38:18Z</time>
      </trkpt>
      <trkpt lat="48.00132" lon="-2.28524">
        <ele>118.38</ele>
        <time>2016-07-06T08:38:48Z</time>
      </trkpt>
      <trkpt lat="48.00141" lon="-2.2857">
        <ele>114.53</ele>
        <time>2016-07-06T08:39:18Z</time>
      </trkpt>
      <trkpt lat="48.00123" lon="-2.28593">
        <ele>110.69</ele>
        <time>2016-07-06T08:39:48Z</time>
      </trkpt>
      <trkpt lat="48.00125" lon="-2.28599">
        <ele>109.73</ele>
        <time>2016-07-06T08:40:18Z</time>
      </trkpt>
      <trkpt lat="48.00121" lon="-2.28606">
        <ele>106.84</ele>
        <time>2016-07-06T08:40:48Z</time>
      </trkpt>
      <trkpt lat="48.00119" lon="-2.28612">
        <ele>104.44</ele>
        <time>2016-07-06T08:41:18Z</time>
      </trkpt>
      <trkpt lat="48.00115" lon="-2.28618">
        <ele>103.48</ele>
        <time>2016-07-06T08:41:48Z</time>
      </trkpt>
      <trkpt lat="48.00119" lon="-2.28624">
        <ele>103.48</ele>
        <time>2016-07-06T08:42:18Z</time>
      </trkpt>
      <trkpt lat="48.00123" lon="-2.28629">
        <ele>103.48</ele>
        <time>2016-07-06T08:42:48Z</time>
      </trkpt>
      <trkpt lat="48.00125" lon="-2.28634">
        <ele>103.48</ele>
        <time>2016-07-06T08:43:18Z</time>
      </trkpt>
      <trkpt lat="48.00119" lon="-2.28639">
        <ele>103.48</ele>
        <time>2016-07-06T08:43:48Z</time>
      </trkpt>
      <trkpt lat="48.00117" lon="-2.28626">
        <ele>103.48</ele>
        <time>2016-07-06T08:44:18Z</time>
      </trkpt>
      <trkpt lat="48.00124" lon="-2.28628">
        <ele>103.96</ele>
        <time>2016-07-06T08:44:48Z</time>
      </trkpt>
      <trkpt lat="48.00122" lon="-2.2862">
        <ele>103</ele>
        <time>2016-07-06T08:45:18Z</time>
      </trkpt>
      <trkpt lat="48.00119" lon="-2.28632">
        <ele>101.08</ele>
        <time>2016-07-06T08:45:48Z</time>
      </trkpt>
      <trkpt lat="48.00114" lon="-2.2863">
        <ele>100.6</ele>
        <time>2016-07-06T08:46:18Z</time>
      </trkpt>
      <trkpt lat="48.00121" lon="-2.28648">
        <ele>100.6</ele>
        <time>2016-07-06T08:46:48Z</time>
      </trkpt>
      <trkpt lat="48.00119" lon="-2.28646">
        <ele>100.11</ele>
        <time>2016-07-06T08:47:18Z</time>
      </trkpt>
      <trkpt lat="48.00123" lon="-2.28636">
        <ele>100.11</ele>
        <time>2016-07-06T08:47:48Z</time>
      </trkpt>
      <trkpt lat="48.00125" lon="-2.28635">
        <ele>100.11</ele>
        <time>2016-07-06T08:48:18Z</time>
      </trkpt>
      <trkpt lat="48.00121" lon="-2.28642">
        <ele>100.11</ele>
        <time>2016-07-06T08:48:48Z</time>
      </trkpt>
      <trkpt lat="48.00121" lon="-2.28651">
        <ele>101.08</ele>
        <time>2016-07-06T08:49:18Z</time>
      </trkpt>
      <trkpt lat="48.00127" lon="-2.28641">
        <ele>100.6</ele>
        <time>2016-07-06T08:49:48Z</time>
      </trkpt>
      <trkpt lat="48.0012" lon="-2.28653">
        <ele>101.08</ele>
        <time>2016-07-06T08:50:18Z</time>
      </trkpt>
      <trkpt lat="48.00122" lon="-2.28642">
        <ele>101.56</ele>
        <time>2016-07-06T08:50:48Z</time>
      </trkpt>
      <trkpt lat="48.00114" lon="-2.28632">
        <ele>103.48</ele>
        <time>2016-07-06T08:51:18Z</time>
      </trkpt>
      <trkpt lat="48.00097" lon="-2.28641">
        <ele>102.52</ele>
        <time>2016-07-06T08:51:48Z</time>
      </trkpt>
      <trkpt lat="48.00097" lon="-2.28635">
        <ele>102.04</ele>
        <time>2016-07-06T08:52:18Z</time>
      </trkpt>
      <trkpt lat="48.00104" lon="-2.28637">
        <ele>102.52</ele>
        <time>2016-07-06T08:52:48Z</time>
      </trkpt>
      <trkpt lat="48.00086" lon="-2.28646">
        <ele>103.96</ele>
        <time>2016-07-06T08:53:18Z</time>
      </trkpt>
      <trkpt lat="48.00075" lon="-2.28609">
        <ele>105.4</ele>
        <time>2016-07-06T08:53:48Z</time>
      </trkpt>
      <trkpt lat="48.00073" lon="-2.28594">
        <ele>104.92</ele>
        <time>2016-07-06T08:54:18Z</time>
      </trkpt>
      <trkpt lat="48.00057" lon="-2.28549">
        <ele>103</ele>
        <time>2016-07-06T08:54:48Z</time>
      </trkpt>
      <trkpt lat="48.00039" lon="-2.28504">
        <ele>103.48</ele>
        <time>2016-07-06T08:55:18Z</time>
      </trkpt>
      <trkpt lat="48.00016" lon="-2.28464">
        <ele>104.44</ele>
        <time>2016-07-06T08:55:48Z</time>
      </trkpt>
      <trkpt lat="48.00009" lon="-2.28416">
        <ele>105.4</ele>
        <time>2016-07-06T08:56:18Z</time>
      </trkpt>
      <trkpt lat="47.99992" lon="-2.28373">
        <ele>107.81</ele>
        <time>2016-07-06T08:56:48Z</time>
      </trkpt>
      <trkpt lat="47.99986" lon="-2.28327">
        <ele>106.36</ele>
        <time>2016-07-06T08:57:18Z</time>
      </trkpt>
      <trkpt lat="47.99975" lon="-2.28282">
        <ele>106.84</ele>
        <time>2016-07-06T08:57:48Z</time>
      </trkpt>
      <trkpt lat="47.99965" lon="-2.28242">
        <ele>107.81</ele>
        <time>2016-07-06T08:58:18Z</time>
      </trkpt>
      <trkpt lat="47.99959" lon="-2.28203">
        <ele>107.81</ele>
        <time>2016-07-06T08:58:48Z</time>
      </trkpt>
      <trkpt lat="47.99957" lon="-2.28173">
        <ele>108.29</ele>
        <time>2016-07-06T08:59:18Z</time>
      </trkpt>
      <trkpt lat="47.99962" lon="-2.28157">
        <ele>108.77</ele>
        <time>2016-07-06T08:59:48Z</time>
      </trkpt>
      <trkpt lat="47.99971" lon="-2.28117">
        <ele>108.77</ele>
        <time>2016-07-06T09:00:18Z</time>
      </trkpt>
      <trkpt lat="47.99976" lon="-2.28084">
        <ele>109.73</ele>
        <time>2016-07-06T09:00:48Z</time>
      </trkpt>
      <trkpt lat="47.99976" lon="-2.28077">
        <ele>110.21</ele>
        <time>2016-07-06T09:01:18Z</time>
      </trkpt>
      <trkpt lat="47.99976" lon="-2.28064">
        <ele>110.21</ele>
        <time>2016-07-06T09:01:48Z</time>
      </trkpt>
      <trkpt lat="47.99979" lon="-2.28027">
        <ele>110.69</ele>
        <time>2016-07-06T09:02:18Z</time>
      </trkpt>
      <trkpt lat="47.99986" lon="-2.27986">
        <ele>110.69</ele>
        <time>2016-07-06T09:02:48Z</time>
      </trkpt>
      <trkpt lat="47.99995" lon="-2.27952">
        <ele>111.65</ele>
        <time>2016-07-06T09:03:18Z</time>
      </trkpt>
      <trkpt lat="48.00006" lon="-2.27933">
        <ele>111.65</ele>
        <time>2016-07-06T09:03:48Z</time>
      </trkpt>
      <trkpt lat="48.00019" lon="-2.27916">
        <ele>113.57</ele>
        <time>2016-07-06T09:04:18Z</time>
      </trkpt>
      <trkpt lat="48.00012" lon="-2.27904">
        <ele>112.61</ele>
        <time>2016-07-06T09:04:48Z</time>
      </trkpt>
      <trkpt lat="48.00013" lon="-2.27905">
        <ele>112.13</ele>
        <time>2016-07-06T09:05:18Z</time>
      </trkpt>
      <trkpt lat="48.00014" lon="-2.27905">
        <ele>112.61</ele>
        <time>2016-07-06T09:05:48Z</time>
      </trkpt>
      <trkpt lat="48.00009" lon="-2.27899">
        <ele>116.46</ele>
        <time>2016-07-06T09:06:18Z</time>
      </trkpt>
      <trkpt lat="48.0002" lon="-2.27894">
        <ele>113.57</ele>
        <time>2016-07-06T09:06:48Z</time>
      </trkpt>
      <trkpt lat="48.0004" lon="-2.27885">
        <ele>113.57</ele>
        <time>2016-07-06T09:07:18Z</time>
      </trkpt>
      <trkpt lat="48.00061" lon="-2.27859">
        <ele>115.98</ele>
        <time>2016-07-06T09:07:48Z</time>
      </trkpt>
      <trkpt lat="48.0008" lon="-2.27833">
        <ele>116.46</ele>
        <time>2016-07-06T09:08:18Z</time>
      </trkpt>
      <trkpt lat="48.00094" lon="-2.27787">
        <ele>116.94</ele>
        <time>2016-07-06T09:08:48Z</time>
      </trkpt>
      <trkpt lat="48.00098" lon="-2.27743">
        <ele>117.9</ele>
        <time>2016-07-06T09:09:18Z</time>
      </trkpt>
      <trkpt lat="48.00102" lon="-2.27718">
        <ele>117.9</ele>
        <time>2016-07-06T09:09:48Z</time>
      </trkpt>
      <trkpt lat="48.00107" lon="-2.27699">
        <ele>119.82</ele>
        <time>2016-07-06T09:10:18Z</time>
      </trkpt>
      <trkpt lat="48.00115" lon="-2.27688">
        <ele>121.26</ele>
        <time>2016-07-06T09:10:48Z</time>
      </trkpt>
      <trkpt lat="48.00123" lon="-2.27682">
        <ele>122.22</ele>
        <time>2016-07-06T09:11:18Z</time>
      </trkpt>
      <trkpt lat="48.00123" lon="-2.27686">
        <ele>124.63</ele>
        <time>2016-07-06T09:11:48Z</time>
      </trkpt>
      <trkpt lat="48.0013" lon="-2.27686">
        <ele>123.67</ele>
        <time>2016-07-06T09:12:18Z</time>
      </trkpt>
      <trkpt lat="48.00127" lon="-2.27682">
        <ele>124.15</ele>
        <time>2016-07-06T09:12:48Z</time>
      </trkpt>
      <trkpt lat="48.00124" lon="-2.27684">
        <ele>124.15</ele>
        <time>2016-07-06T09:13:18Z</time>
      </trkpt>
      <trkpt lat="48.00128" lon="-2.27683">
        <ele>124.15</ele>
        <time>2016-07-06T09:13:48Z</time>
      </trkpt>
      <trkpt lat="48.00139" lon="-2.27689">
        <ele>124.63</ele>
        <time>2016-07-06T09:14:18Z</time>
      </trkpt>
      <trkpt lat="48.00136" lon="-2.27697">
        <ele>124.15</ele>
        <time>2016-07-06T09:14:48Z</time>
      </trkpt>
      <trkpt lat="48.00135" lon="-2.27701">
        <ele>124.15</ele>
        <time>2016-07-06T09:15:18Z</time>
      </trkpt>
      <trkpt lat="48.00129" lon="-2.277">
        <ele>124.63</ele>
        <time>2016-07-06T09:15:48Z</time>
      </trkpt>
      <trkpt lat="48.00125" lon="-2.27697">
        <ele>124.15</ele>
        <time>2016-07-06T09:16:18Z</time>
      </trkpt>
      <trkpt lat="48.00132" lon="-2.27699">
        <ele>125.11</ele>
        <time>2016-07-06T09:16:48Z</time>
      </trkpt>
      <trkpt lat="48.00126" lon="-2.2768">
        <ele>125.11</ele>
        <time>2016-07-06T09:17:18Z</time>
      </trkpt>
      <trkpt lat="48.00126" lon="-2.27675">
        <ele>125.11</ele>
        <time>2016-07-06T09:17:48Z</time>
      </trkpt>
      <trkpt lat="48.00134" lon="-2.27672">
        <ele>125.11</ele>
        <time>2016-07-06T09:18:18Z</time>
      </trkpt>
      <trkpt lat="48.00151" lon="-2.27666">
        <ele>124.15</ele>
        <time>2016-07-06T09:18:48Z</time>
      </trkpt>
      <trkpt lat="48.00165" lon="-2.27635">
        <ele>125.11</ele>
        <time>2016-07-06T09:19:18Z</time>
      </trkpt>
      <trkpt lat="48.0018" lon="-2.27572">
        <ele>125.59</ele>
        <time>2016-07-06T09:19:48Z</time>
      </trkpt>
      <trkpt lat="48.00205" lon="-2.27545">
        <ele>126.55</ele>
        <time>2016-07-06T09:20:18Z</time>
      </trkpt>
      <trkpt lat="48.00227" lon="-2.27516">
        <ele>127.03</ele>
        <time>2016-07-06T09:20:48Z</time>
      </trkpt>
      <trkpt lat="48.00247" lon="-2.27478">
        <ele>129.43</ele>
        <time>2016-07-06T09:21:18Z</time>
      </trkpt>
      <trkpt lat="48.00264" lon="-2.27443">
        <ele>128.95</ele>
        <time>2016-07-06T09:21:48Z</time>
      </trkpt>
      <trkpt lat="48.00276" lon="-2.2741">
        <ele>130.88</ele>
        <time>2016-07-06T09:22:18Z</time>
      </trkpt>
      <trkpt lat="48.00298" lon="-2.27374">
        <ele>130.4</ele>
        <time>2016-07-06T09:22:48Z</time>
      </trkpt>
      <trkpt lat="48.0031" lon="-2.27352">
        <ele>130.88</ele>
        <time>2016-07-06T09:23:18Z</time>
      </trkpt>
      <trkpt lat="48.0031" lon="-2.27341">
        <ele>131.84</ele>
        <time>2016-07-06T09:23:48Z</time>
      </trkpt>
      <trkpt lat="48.00304" lon="-2.27357">
        <ele>131.84</ele>
        <time>2016-07-06T09:24:18Z</time>
      </trkpt>
      <trkpt lat="48.00297" lon="-2.2734">
        <ele>131.84</ele>
        <time>2016-07-06T09:24:48Z</time>
      </trkpt>
      <trkpt lat="48.00307" lon="-2.27335">
        <ele>131.36</ele>
        <time>2016-07-06T09:25:18Z</time>
      </trkpt>
      <trkpt lat="48.00301" lon="-2.27334">
        <ele>131.84</ele>
        <time>2016-07-06T09:25:48Z</time>
      </trkpt>
      <trkpt lat="48.00297" lon="-2.27335">
        <ele>131.36</ele>
        <time>2016-07-06T09:26:18Z</time>
      </trkpt>
      <trkpt lat="48.00306" lon="-2.27335">
        <ele>131.36</ele>
        <time>2016-07-06T09:26:48Z</time>
      </trkpt>
      <trkpt lat="48.00297" lon="-2.27333">
        <ele>131.36</ele>
        <time>2016-07-06T09:27:18Z</time>
      </trkpt>
      <trkpt lat="48.00293" lon="-2.27328">
        <ele>131.84</ele>
        <time>2016-07-06T09:27:48Z</time>
      </trkpt>
      <trkpt lat="48.00292" lon="-2.27299">
        <ele>135.2</ele>
        <time>2016-07-06T09:28:18Z</time>
      </trkpt>
      <trkpt lat="48.00288" lon="-2.27266">
        <ele>137.13</ele>
        <time>2016-07-06T09:28:48Z</time>
      </trkpt>
      <trkpt lat="48.00295" lon="-2.27229">
        <ele>138.57</ele>
        <time>2016-07-06T09:29:18Z</time>
      </trkpt>
      <trkpt lat="48.00309" lon="-2.27193">
        <ele>140.97</ele>
        <time>2016-07-06T09:29:48Z</time>
      </trkpt>
      <trkpt lat="48.0031" lon="-2.27152">
        <ele>142.41</ele>
        <time>2016-07-06T09:30:18Z</time>
      </trkpt>
      <trkpt lat="48.00305" lon="-2.2711">
        <ele>143.37</ele>
        <time>2016-07-06T09:30:48Z</time>
      </trkpt>
      <trkpt lat="48.003" lon="-2.27083">
        <ele>144.34</ele>
        <time>2016-07-06T09:31:18Z</time>
      </trkpt>
      <trkpt lat="48.00296" lon="-2.27044">
        <ele>144.34</ele>
        <time>2016-07-06T09:31:48Z</time>
      </trkpt>
      <trkpt lat="48.00289" lon="-2.26998">
        <ele>145.3</ele>
        <time>2016-07-06T09:32:18Z</time>
      </trkpt>
      <trkpt lat="48.00272" lon="-2.26985">
        <ele>146.26</ele>
        <time>2016-07-06T09:32:48Z</time>
      </trkpt>
      <trkpt lat="48.00244" lon="-2.26977">
        <ele>149.62</ele>
        <time>2016-07-06T09:33:18Z</time>
      </trkpt>
      <trkpt lat="48.00218" lon="-2.26977">
        <ele>153.47</ele>
        <time>2016-07-06T09:33:48Z</time>
      </trkpt>
      <trkpt lat="48.00196" lon="-2.26971">
        <ele>156.83</ele>
        <time>2016-07-06T09:34:18Z</time>
      </trkpt>
      <trkpt lat="48.00173" lon="-2.26964">
        <ele>161.16</ele>
        <time>2016-07-06T09:34:48Z</time>
      </trkpt>
      <trkpt lat="48.00156" lon="-2.26952">
        <ele>164.52</ele>
        <time>2016-07-06T09:35:18Z</time>
      </trkpt>
      <trkpt lat="48.00134" lon="-2.26957">
        <ele>166.45</ele>
        <time>2016-07-06T09:35:48Z</time>
      </trkpt>
      <trkpt lat="48.00139" lon="-2.2696">
        <ele>166.93</ele>
        <time>2016-07-06T09:36:18Z</time>
      </trkpt>
      <trkpt lat="48.00137" lon="-2.26959">
        <ele>166.93</ele>
        <time>2016-07-06T09:36:48Z</time>
      </trkpt>
      <trkpt lat="48.00139" lon="-2.26961">
        <ele>166.93</ele>
        <time>2016-07-06T09:37:18Z</time>
      </trkpt>
      <trkpt lat="48.00139" lon="-2.26958">
        <ele>166.45</ele>
        <time>2016-07-06T09:37:48Z</time>
      </trkpt>
      <trkpt lat="48.00133" lon="-2.26959">
        <ele>165.96</ele>
        <time>2016-07-06T09:38:18Z</time>
      </trkpt>
      <trkpt lat="48.00131" lon="-2.2696">
        <ele>165.48</ele>
        <time>2016-07-06T09:38:48Z</time>
      </trkpt>
      <trkpt lat="48.00133" lon="-2.26967">
        <ele>165.96</ele>
        <time>2016-07-06T09:39:18Z</time>
      </trkpt>
      <trkpt lat="48.00135" lon="-2.26956">
        <ele>166.93</ele>
        <time>2016-07-06T09:39:48Z</time>
      </trkpt>
      <trkpt lat="48.00115" lon="-2.26977">
        <ele>170.29</ele>
        <time>2016-07-06T09:40:18Z</time>
      </trkpt>
      <trkpt lat="48.00094" lon="-2.27012">
        <ele>171.73</ele>
        <time>2016-07-06T09:40:48Z</time>
      </trkpt>
      <trkpt lat="48.00071" lon="-2.27046">
        <ele>172.21</ele>
        <time>2016-07-06T09:41:18Z</time>
      </trkpt>
      <trkpt lat="48.00036" lon="-2.27073">
        <ele>172.69</ele>
        <time>2016-07-06T09:41:48Z</time>
      </trkpt>
      <trkpt lat="48" lon="-2.27079">
        <ele>173.17</ele>
        <time>2016-07-06T09:42:18Z</time>
      </trkpt>
      <trkpt lat="47.99968" lon="-2.2706">
        <ele>174.62</ele>
        <time>2016-07-06T09:42:48Z</time>
      </trkpt>
      <trkpt lat="47.99938" lon="-2.27036">
        <ele>176.54</ele>
        <time>2016-07-06T09:43:18Z</time>
      </trkpt>
      <trkpt lat="47.99908" lon="-2.27003">
        <ele>177.98</ele>
        <time>2016-07-06T09:43:48Z</time>
      </trkpt>
      <trkpt lat="47.99884" lon="-2.26973">
        <ele>178.94</ele>
        <time>2016-07-06T09:44:18Z</time>
      </trkpt>
      <trkpt lat="47.99868" lon="-2.2697">
        <ele>179.42</ele>
        <time>2016-07-06T09:44:48Z</time>
      </trkpt>
      <trkpt lat="47.99869" lon="-2.26971">
        <ele>180.38</ele>
        <time>2016-07-06T09:45:18Z</time>
      </trkpt>
      <trkpt lat="47.99867" lon="-2.26965">
        <ele>180.38</ele>
        <time>2016-07-06T09:45:48Z</time>
      </trkpt>
      <trkpt lat="47.9987" lon="-2.26971">
        <ele>179.9</ele>
        <time>2016-07-06T09:46:18Z</time>
      </trkpt>
      <trkpt lat="47.99871" lon="-2.26975">
        <ele>179.9</ele>
        <time>2016-07-06T09:46:48Z</time>
      </trkpt>
      <trkpt lat="47.99874" lon="-2.26978">
        <ele>180.38</ele>
        <time>2016-07-06T09:47:18Z</time>
      </trkpt>
      <trkpt lat="47.99867" lon="-2.2697">
        <ele>180.38</ele>
        <time>2016-07-06T09:47:48Z</time>
      </trkpt>
      <trkpt lat="47.99868" lon="-2.2697">
        <ele>179.9</ele>
        <time>2016-07-06T09:48:18Z</time>
      </trkpt>
      <trkpt lat="47.99872" lon="-2.26968">
        <ele>179.42</ele>
        <time>2016-07-06T09:48:48Z</time>
      </trkpt>
      <trkpt lat="47.99871" lon="-2.26965">
        <ele>179.9</ele>
        <time>2016-07-06T09:49:18Z</time>
      </trkpt>
      <trkpt lat="47.9987" lon="-2.26966">
        <ele>180.38</ele>
        <time>2016-07-06T09:49:48Z</time>
      </trkpt>
      <trkpt lat="47.99854" lon="-2.2697">
        <ele>181.35</ele>
        <time>2016-07-06T09:50:18Z</time>
      </trkpt>
      <trkpt lat="47.99826" lon="-2.26955">
        <ele>182.79</ele>
        <time>2016-07-06T09:50:48Z</time>
      </trkpt>
      <trkpt lat="47.99797" lon="-2.26936">
        <ele>183.27</ele>
        <time>2016-07-06T09:51:18Z</time>
      </trkpt>
      <trkpt lat="47.99789" lon="-2.2694">
        <ele>183.27</ele>
        <time>2016-07-06T09:51:48Z</time>
      </trkpt>
      <trkpt lat="47.99764" lon="-2.26948">
        <ele>183.27</ele>
        <time>2016-07-06T09:52:18Z</time>
      </trkpt>
      <trkpt lat="47.99734" lon="-2.26958">
        <ele>184.23</ele>
        <time>2016-07-06T09:52:48Z</time>
      </trkpt>
      <trkpt lat="47.99702" lon="-2.26965">
        <ele>186.15</ele>
        <time>2016-07-06T09:53:18Z</time>
      </trkpt>
      <trkpt lat="47.99671" lon="-2.26969">
        <ele>188.08</ele>
        <time>2016-07-06T09:53:48Z</time>
      </trkpt>
      <trkpt lat="47.99646" lon="-2.26964">
        <ele>187.59</ele>
        <time>2016-07-06T09:54:18Z</time>
      </trkpt>
      <trkpt lat="47.99632" lon="-2.26922">
        <ele>184.71</ele>
        <time>2016-07-06T09:54:48Z</time>
      </trkpt>
      <trkpt lat="47.99614" lon="-2.26881">
        <ele>184.23</ele>
        <time>2016-07-06T09:55:18Z</time>
      </trkpt>
      <trkpt lat="47.99591" lon="-2.26845">
        <ele>186.63</ele>
        <time>2016-07-06T09:55:48Z</time>
      </trkpt>
      <trkpt lat="47.99563" lon="-2.26826">
        <ele>189.52</ele>
        <time>2016-07-06T09:56:18Z</time>
      </trkpt>
      <trkpt lat="47.99536" lon="-2.26794">
        <ele>191.92</ele>
        <time>2016-07-06T09:56:48Z</time>
      </trkpt>
      <trkpt lat="47.99513" lon="-2.26758">
        <ele>192.4</ele>
        <time>2016-07-06T09:57:18Z</time>
      </trkpt>
      <trkpt lat="47.99491" lon="-2.26729">
        <ele>192.4</ele>
        <time>2016-07-06T09:57:48Z</time>
      </trkpt>
      <trkpt lat="47.99492" lon="-2.26734">
        <ele>192.88</ele>
        <time>2016-07-06T09:58:18Z</time>
      </trkpt>
      <trkpt lat="47.99493" lon="-2.26733">
        <ele>192.88</ele>
        <time>2016-07-06T09:58:48Z</time>
      </trkpt>
      <trkpt lat="47.99488" lon="-2.2673">
        <ele>191.92</ele>
        <time>2016-07-06T09:59:18Z</time>
      </trkpt>
      <trkpt lat="47.99463" lon="-2.26735">
        <ele>192.88</ele>
        <time>2016-07-06T09:59:48Z</time>
      </trkpt>
      <trkpt lat="47.99453" lon="-2.2678">
        <ele>193.36</ele>
        <time>2016-07-06T10:00:18Z</time>
      </trkpt>
      <trkpt lat="47.99443" lon="-2.26828">
        <ele>194.32</ele>
        <time>2016-07-06T10:00:48Z</time>
      </trkpt>
      <trkpt lat="47.99431" lon="-2.26877">
        <ele>194.32</ele>
        <time>2016-07-06T10:01:18Z</time>
      </trkpt>
      <trkpt lat="47.9942" lon="-2.26928">
        <ele>194.8</ele>
        <time>2016-07-06T10:01:48Z</time>
      </trkpt>
      <trkpt lat="47.99408" lon="-2.26974">
        <ele>194.8</ele>
        <time>2016-07-06T10:02:18Z</time>
      </trkpt>
      <trkpt lat="47.99397" lon="-2.27023">
        <ele>194.8</ele>
        <time>2016-07-06T10:02:48Z</time>
      </trkpt>
      <trkpt lat="47.99387" lon="-2.27059">
        <ele>194.32</ele>
        <time>2016-07-06T10:03:18Z</time>
      </trkpt>
      <trkpt lat="47.99374" lon="-2.27117">
        <ele>193.36</ele>
        <time>2016-07-06T10:03:48Z</time>
      </trkpt>
      <trkpt lat="47.99364" lon="-2.27168">
        <ele>192.4</ele>
        <time>2016-07-06T10:04:18Z</time>
      </trkpt>
      <trkpt lat="47.99362" lon="-2.27209">
        <ele>190.48</ele>
        <time>2016-07-06T10:04:48Z</time>
      </trkpt>
      <trkpt lat="47.99382" lon="-2.27236">
        <ele>188.56</ele>
        <time>2016-07-06T10:05:18Z</time>
      </trkpt>
      <trkpt lat="47.99407" lon="-2.27255">
        <ele>188.08</ele>
        <time>2016-07-06T10:05:48Z</time>
      </trkpt>
      <trkpt lat="47.99418" lon="-2.27269">
        <ele>189.52</ele>
        <time>2016-07-06T10:06:18Z</time>
      </trkpt>
      <trkpt lat="47.99436" lon="-2.27299">
        <ele>193.36</ele>
        <time>2016-07-06T10:06:48Z</time>
      </trkpt>
      <trkpt lat="47.99439" lon="-2.2731">
        <ele>195.77</ele>
        <time>2016-07-06T10:07:18Z</time>
      </trkpt>
      <trkpt lat="47.99441" lon="-2.27313">
        <ele>194.8</ele>
        <time>2016-07-06T10:07:48Z</time>
      </trkpt>
      <trkpt lat="47.99442" lon="-2.27314">
        <ele>195.28</ele>
        <time>2016-07-06T10:08:18Z</time>
      </trkpt>
      <trkpt lat="47.99441" lon="-2.27313">
        <ele>194.8</ele>
        <time>2016-07-06T10:08:48Z</time>
      </trkpt>
      <trkpt lat="47.9944" lon="-2.27313">
        <ele>195.28</ele>
        <time>2016-07-06T10:09:18Z</time>
      </trkpt>
      <trkpt lat="47.99442" lon="-2.27311">
        <ele>195.28</ele>
        <time>2016-07-06T10:09:48Z</time>
      </trkpt>
      <trkpt lat="47.9944" lon="-2.27311">
        <ele>195.28</ele>
        <time>2016-07-06T10:10:18Z</time>
      </trkpt>
      <trkpt lat="47.99442" lon="-2.27313">
        <ele>195.77</ele>
        <time>2016-07-06T10:10:48Z</time>
      </trkpt>
      <trkpt lat="47.99441" lon="-2.27312">
        <ele>195.28</ele>
        <time>2016-07-06T10:11:18Z</time>
      </trkpt>
      <trkpt lat="47.99441" lon="-2.27312">
        <ele>195.28</ele>
        <time>2016-07-06T10:11:48Z</time>
      </trkpt>
      <trkpt lat="47.99441" lon="-2.27311">
        <ele>195.28</ele>
        <time>2016-07-06T10:12:18Z</time>
      </trkpt>
      <trkpt lat="47.99441" lon="-2.27313">
        <ele>195.28</ele>
        <time>2016-07-06T10:12:48Z</time>
      </trkpt>
      <trkpt lat="47.99441" lon="-2.27312">
        <ele>195.28</ele>
        <time>2016-07-06T10:13:18Z</time>
      </trkpt>
      <trkpt lat="47.99441" lon="-2.27312">
        <ele>195.28</ele>
        <time>2016-07-06T10:13:48Z</time>
      </trkpt>
      <trkpt lat="47.99441" lon="-2.27313">
        <ele>195.28</ele>
        <time>2016-07-06T10:14:18Z</time>
      </trkpt>
      <trkpt lat="47.99441" lon="-2.27312">
        <ele>195.28</ele>
        <time>2016-07-06T10:14:48Z</time>
      </trkpt>
      <trkpt lat="47.9944" lon="-2.27313">
        <ele>194.8</ele>
        <time>2016-07-06T10:15:18Z</time>
      </trkpt>
      <trkpt lat="47.9944" lon="-2.27312">
        <ele>194.8</ele>
        <time>2016-07-06T10:15:48Z</time>
      </trkpt>
      <trkpt lat="47.99439" lon="-2.2731">
        <ele>195.28</ele>
        <time>2016-07-06T10:16:18Z</time>
      </trkpt>
      <trkpt lat="47.9944" lon="-2.27314">
        <ele>195.28</ele>
        <time>2016-07-06T10:16:48Z</time>
      </trkpt>
      <trkpt lat="47.9944" lon="-2.27309">
        <ele>194.8</ele>
        <time>2016-07-06T10:17:18Z</time>
      </trkpt>
      <trkpt lat="47.99441" lon="-2.27312">
        <ele>194.8</ele>
        <time>2016-07-06T10:17:48Z</time>
      </trkpt>
      <trkpt lat="47.99441" lon="-2.27311">
        <ele>194.8</ele>
        <time>2016-07-06T10:18:18Z</time>
      </trkpt>
      <trkpt lat="47.99439" lon="-2.27312">
        <ele>194.8</ele>
        <time>2016-07-06T10:18:48Z</time>
      </trkpt>
      <trkpt lat="47.99439" lon="-2.27313">
        <ele>194.8</ele>
        <time>2016-07-06T10:19:18Z</time>
      </trkpt>
      <trkpt lat="47.99438" lon="-2.27313">
        <ele>195.28</ele>
        <time>2016-07-06T10:19:48Z</time>
      </trkpt>
      <trkpt lat="47.9944" lon="-2.2731">
        <ele>195.28</ele>
        <time>2016-07-06T10:20:18Z</time>
      </trkpt>
      <trkpt lat="47.9944" lon="-2.27312">
        <ele>195.28</ele>
        <time>2016-07-06T10:20:48Z</time>
      </trkpt>
      <trkpt lat="47.9944" lon="-2.27311">
        <ele>195.77</ele>
        <time>2016-07-06T10:21:18Z</time>
      </trkpt>
      <trkpt lat="47.9944" lon="-2.27309">
        <ele>196.25</ele>
        <time>2016-07-06T10:21:48Z</time>
      </trkpt>
      <trkpt lat="47.9944" lon="-2.27309">
        <ele>195.28</ele>
        <time>2016-07-06T10:22:18Z</time>
      </trkpt>
      <trkpt lat="47.99439" lon="-2.27311">
        <ele>196.25</ele>
        <time>2016-07-06T10:22:48Z</time>
      </trkpt>
      <trkpt lat="47.99441" lon="-2.2731">
        <ele>195.77</ele>
        <time>2016-07-06T10:23:18Z</time>
      </trkpt>
      <trkpt lat="47.99439" lon="-2.27309">
        <ele>196.25</ele>
        <time>2016-07-06T10:23:48Z</time>
      </trkpt>
      <trkpt lat="47.9944" lon="-2.27312">
        <ele>196.25</ele>
        <time>2016-07-06T10:24:18Z</time>
      </trkpt>
      <trkpt lat="47.9944" lon="-2.27312">
        <ele>195.77</ele>
        <time>2016-07-06T10:24:48Z</time>
      </trkpt>
      <trkpt lat="47.9944" lon="-2.2731">
        <ele>196.25</ele>
        <time>2016-07-06T10:25:18Z</time>
      </trkpt>
      <trkpt lat="47.9944" lon="-2.27306">
        <ele>195.77</ele>
        <time>2016-07-06T10:25:48Z</time>
      </trkpt>
      <trkpt lat="47.99438" lon="-2.27305">
        <ele>195.77</ele>
        <time>2016-07-06T10:26:18Z</time>
      </trkpt>
      <trkpt lat="47.99437" lon="-2.27304">
        <ele>196.25</ele>
        <time>2016-07-06T10:26:48Z</time>
      </trkpt>
      <trkpt lat="47.99437" lon="-2.2731">
        <ele>195.77</ele>
        <time>2016-07-06T10:27:18Z</time>
      </trkpt>
      <trkpt lat="47.99436" lon="-2.27308">
        <ele>196.25</ele>
        <time>2016-07-06T10:27:48Z</time>
      </trkpt>
      <trkpt lat="47.99437" lon="-2.2731">
        <ele>195.77</ele>
        <time>2016-07-06T10:28:18Z</time>
      </trkpt>
      <trkpt lat="47.99438" lon="-2.27308">
        <ele>196.25</ele>
        <time>2016-07-06T10:28:48Z</time>
      </trkpt>
      <trkpt lat="47.99438" lon="-2.27309">
        <ele>196.25</ele>
        <time>2016-07-06T10:29:18Z</time>
      </trkpt>
      <trkpt lat="47.99438" lon="-2.27311">
        <ele>196.25</ele>
        <time>2016-07-06T10:29:48Z</time>
      </trkpt>
      <trkpt lat="47.99437" lon="-2.2731">
        <ele>196.25</ele>
        <time>2016-07-06T10:30:18Z</time>
      </trkpt>
      <trkpt lat="47.99437" lon="-2.2731">
        <ele>196.25</ele>
        <time>2016-07-06T10:30:48Z</time>
      </trkpt>
      <trkpt lat="47.99439" lon="-2.27314">
        <ele>196.25</ele>
        <time>2016-07-06T10:31:18Z</time>
      </trkpt>
      <trkpt lat="47.99438" lon="-2.27314">
        <ele>195.77</ele>
        <time>2016-07-06T10:31:48Z</time>
      </trkpt>
      <trkpt lat="47.9944" lon="-2.27312">
        <ele>196.25</ele>
        <time>2016-07-06T10:32:18Z</time>
      </trkpt>
      <trkpt lat="47.9944" lon="-2.27315">
        <ele>196.25</ele>
        <time>2016-07-06T10:32:48Z</time>
      </trkpt>
      <trkpt lat="47.99439" lon="-2.27312">
        <ele>196.25</ele>
        <time>2016-07-06T10:33:18Z</time>
      </trkpt>
      <trkpt lat="47.99439" lon="-2.27314">
        <ele>196.25</ele>
        <time>2016-07-06T10:33:48Z</time>
      </trkpt>
      <trkpt lat="47.9944" lon="-2.27312">
        <ele>196.25</ele>
        <time>2016-07-06T10:34:18Z</time>
      </trkpt>
      <trkpt lat="47.99441" lon="-2.27316">
        <ele>196.73</ele>
        <time>2016-07-06T10:34:48Z</time>
      </trkpt>
      <trkpt lat="47.99439" lon="-2.27312">
        <ele>196.25</ele>
        <time>2016-07-06T10:35:18Z</time>
      </trkpt>
      <trkpt lat="47.9944" lon="-2.27314">
        <ele>195.77</ele>
        <time>2016-07-06T10:35:48Z</time>
      </trkpt>
      <trkpt lat="47.99441" lon="-2.27312">
        <ele>196.25</ele>
        <time>2016-07-06T10:36:18Z</time>
      </trkpt>
      <trkpt lat="47.9944" lon="-2.27311">
        <ele>196.25</ele>
        <time>2016-07-06T10:36:48Z</time>
      </trkpt>
      <trkpt lat="47.9944" lon="-2.27312">
        <ele>196.25</ele>
        <time>2016-07-06T10:37:18Z</time>
      </trkpt>
      <trkpt lat="47.9944" lon="-2.27312">
        <ele>195.77</ele>
        <time>2016-07-06T10:37:48Z</time>
      </trkpt>
      <trkpt lat="47.99439" lon="-2.27312">
        <ele>195.77</ele>
        <time>2016-07-06T10:38:18Z</time>
      </trkpt>
      <trkpt lat="47.99439" lon="-2.27311">
        <ele>195.77</ele>
        <time>2016-07-06T10:38:48Z</time>
      </trkpt>
      <trkpt lat="47.99439" lon="-2.2731">
        <ele>195.77</ele>
        <time>2016-07-06T10:39:18Z</time>
      </trkpt>
      <trkpt lat="47.9944" lon="-2.27312">
        <ele>195.77</ele>
        <time>2016-07-06T10:39:48Z</time>
      </trkpt>
      <trkpt lat="47.9944" lon="-2.27311">
        <ele>195.77</ele>
        <time>2016-07-06T10:40:18Z</time>
      </trkpt>
      <trkpt lat="47.99439" lon="-2.27311">
        <ele>195.77</ele>
        <time>2016-07-06T10:40:48Z</time>
      </trkpt>
      <trkpt lat="47.99438" lon="-2.27309">
        <ele>196.25</ele>
        <time>2016-07-06T10:41:18Z</time>
      </trkpt>
      <trkpt lat="47.99439" lon="-2.27307">
        <ele>195.77</ele>
        <time>2016-07-06T10:41:48Z</time>
      </trkpt>
      <trkpt lat="47.99433" lon="-2.27308">
        <ele>194.32</ele>
        <time>2016-07-06T10:42:18Z</time>
      </trkpt>
      <trkpt lat="47.99418" lon="-2.27317">
        <ele>190.96</ele>
        <time>2016-07-06T10:42:48Z</time>
      </trkpt>
      <trkpt lat="47.994" lon="-2.27323">
        <ele>186.63</ele>
        <time>2016-07-06T10:43:18Z</time>
      </trkpt>
      <trkpt lat="47.99386" lon="-2.27363">
        <ele>186.15</ele>
        <time>2016-07-06T10:43:48Z</time>
      </trkpt>
      <trkpt lat="47.99379" lon="-2.27411">
        <ele>186.63</ele>
        <time>2016-07-06T10:44:18Z</time>
      </trkpt>
      <trkpt lat="47.99373" lon="-2.27459">
        <ele>186.63</ele>
        <time>2016-07-06T10:44:48Z</time>
      </trkpt>
      <trkpt lat="47.99368" lon="-2.27506">
        <ele>187.11</ele>
        <time>2016-07-06T10:45:18Z</time>
      </trkpt>
      <trkpt lat="47.99362" lon="-2.27552">
        <ele>188.08</ele>
        <time>2016-07-06T10:45:48Z</time>
      </trkpt>
      <trkpt lat="47.99365" lon="-2.27599">
        <ele>187.59</ele>
        <time>2016-07-06T10:46:18Z</time>
      </trkpt>
      <trkpt lat="47.99371" lon="-2.27645">
        <ele>188.08</ele>
        <time>2016-07-06T10:46:48Z</time>
      </trkpt>
      <trkpt lat="47.99388" lon="-2.27693">
        <ele>188.08</ele>
        <time>2016-07-06T10:47:18Z</time>
      </trkpt>
      <trkpt lat="47.994" lon="-2.2774">
        <ele>188.56</ele>
        <time>2016-07-06T10:47:48Z</time>
      </trkpt>
      <trkpt lat="47.99398" lon="-2.27787">
        <ele>188.56</ele>
        <time>2016-07-06T10:48:18Z</time>
      </trkpt>
      <trkpt lat="47.99424" lon="-2.27809">
        <ele>189.52</ele>
        <time>2016-07-06T10:48:48Z</time>
      </trkpt>
      <trkpt lat="47.99457" lon="-2.27794">
        <ele>189.52</ele>
        <time>2016-07-06T10:49:18Z</time>
      </trkpt>
      <trkpt lat="47.99476" lon="-2.27829">
        <ele>190.96</ele>
        <time>2016-07-06T10:49:48Z</time>
      </trkpt>
      <trkpt lat="47.99477" lon="-2.27881">
        <ele>189.52</ele>
        <time>2016-07-06T10:50:18Z</time>
      </trkpt>
      <trkpt lat="47.99484" lon="-2.27936">
        <ele>188.08</ele>
        <time>2016-07-06T10:50:48Z</time>
      </trkpt>
      <trkpt lat="47.99494" lon="-2.27988">
        <ele>186.63</ele>
        <time>2016-07-06T10:51:18Z</time>
      </trkpt>
      <trkpt lat="47.99503" lon="-2.28038">
        <ele>184.71</ele>
        <time>2016-07-06T10:51:48Z</time>
      </trkpt>
      <trkpt lat="47.99513" lon="-2.2809">
        <ele>183.27</ele>
        <time>2016-07-06T10:52:18Z</time>
      </trkpt>
      <trkpt lat="47.99523" lon="-2.28142">
        <ele>180.87</ele>
        <time>2016-07-06T10:52:48Z</time>
      </trkpt>
      <trkpt lat="47.99533" lon="-2.28192">
        <ele>177.5</ele>
        <time>2016-07-06T10:53:18Z</time>
      </trkpt>
      <trkpt lat="47.99547" lon="-2.28235">
        <ele>174.62</ele>
        <time>2016-07-06T10:53:48Z</time>
      </trkpt>
      <trkpt lat="47.99561" lon="-2.28294">
        <ele>172.21</ele>
        <time>2016-07-06T10:54:18Z</time>
      </trkpt>
      <trkpt lat="47.99575" lon="-2.28344">
        <ele>170.77</ele>
        <time>2016-07-06T10:54:48Z</time>
      </trkpt>
      <trkpt lat="47.99591" lon="-2.28383">
        <ele>169.81</ele>
        <time>2016-07-06T10:55:18Z</time>
      </trkpt>
      <trkpt lat="47.99603" lon="-2.28427">
        <ele>168.37</ele>
        <time>2016-07-06T10:55:48Z</time>
      </trkpt>
      <trkpt lat="47.9962" lon="-2.28492">
        <ele>168.85</ele>
        <time>2016-07-06T10:56:18Z</time>
      </trkpt>
      <trkpt lat="47.9965" lon="-2.28526">
        <ele>165.96</ele>
        <time>2016-07-06T10:56:48Z</time>
      </trkpt>
      <trkpt lat="47.9968" lon="-2.28554">
        <ele>163.08</ele>
        <time>2016-07-06T10:57:18Z</time>
      </trkpt>
      <trkpt lat="47.9971" lon="-2.28583">
        <ele>159.24</ele>
        <time>2016-07-06T10:57:48Z</time>
      </trkpt>
      <trkpt lat="47.99743" lon="-2.28599">
        <ele>154.91</ele>
        <time>2016-07-06T10:58:18Z</time>
      </trkpt>
      <trkpt lat="47.99775" lon="-2.28613">
        <ele>150.1</ele>
        <time>2016-07-06T10:58:48Z</time>
      </trkpt>
      <trkpt lat="47.99798" lon="-2.2865">
        <ele>145.78</ele>
        <time>2016-07-06T10:59:18Z</time>
      </trkpt>
      <trkpt lat="47.99803" lon="-2.28696">
        <ele>141.93</ele>
        <time>2016-07-06T10:59:48Z</time>
      </trkpt>
      <trkpt lat="47.99811" lon="-2.28698">
        <ele>140.97</ele>
        <time>2016-07-06T11:00:18Z</time>
      </trkpt>
      <trkpt lat="47.99811" lon="-2.28695">
        <ele>140.97</ele>
        <time>2016-07-06T11:00:48Z</time>
      </trkpt>
      <trkpt lat="47.9981" lon="-2.28693">
        <ele>140.97</ele>
        <time>2016-07-06T11:01:18Z</time>
      </trkpt>
      <trkpt lat="47.99806" lon="-2.28719">
        <ele>142.89</ele>
        <time>2016-07-06T11:01:48Z</time>
      </trkpt>
      <trkpt lat="47.99806" lon="-2.2872">
        <ele>142.89</ele>
        <time>2016-07-06T11:02:18Z</time>
      </trkpt>
      <trkpt lat="47.99806" lon="-2.28721">
        <ele>142.41</ele>
        <time>2016-07-06T11:02:48Z</time>
      </trkpt>
      <trkpt lat="47.99804" lon="-2.287">
        <ele>141.93</ele>
        <time>2016-07-06T11:03:18Z</time>
      </trkpt>
      <trkpt lat="47.99834" lon="-2.28707">
        <ele>137.61</ele>
        <time>2016-07-06T11:03:48Z</time>
      </trkpt>
      <trkpt lat="47.99872" lon="-2.28726">
        <ele>134.72</ele>
        <time>2016-07-06T11:04:18Z</time>
      </trkpt>
      <trkpt lat="47.99907" lon="-2.28745">
        <ele>130.88</ele>
        <time>2016-07-06T11:04:48Z</time>
      </trkpt>
      <trkpt lat="47.9992" lon="-2.28785">
        <ele>129.92</ele>
        <time>2016-07-06T11:05:18Z</time>
      </trkpt>
      <trkpt lat="47.99931" lon="-2.28787">
        <ele>127.99</ele>
        <time>2016-07-06T11:05:48Z</time>
      </trkpt>
      <trkpt lat="47.99932" lon="-2.28793">
        <ele>127.03</ele>
        <time>2016-07-06T11:06:18Z</time>
      </trkpt>
      <trkpt lat="47.9993" lon="-2.28788">
        <ele>128.95</ele>
        <time>2016-07-06T11:06:48Z</time>
      </trkpt>
      <trkpt lat="47.99932" lon="-2.28789">
        <ele>128.47</ele>
        <time>2016-07-06T11:07:18Z</time>
      </trkpt>
      <trkpt lat="47.99935" lon="-2.28788">
        <ele>127.99</ele>
        <time>2016-07-06T11:07:48Z</time>
      </trkpt>
      <trkpt lat="47.99947" lon="-2.28795">
        <ele>126.07</ele>
        <time>2016-07-06T11:08:18Z</time>
      </trkpt>
      <trkpt lat="47.99966" lon="-2.28802">
        <ele>124.15</ele>
        <time>2016-07-06T11:08:48Z</time>
      </trkpt>
      <trkpt lat="47.99997" lon="-2.28789">
        <ele>125.11</ele>
        <time>2016-07-06T11:09:18Z</time>
      </trkpt>
      <trkpt lat="48.00023" lon="-2.28801">
        <ele>123.19</ele>
        <time>2016-07-06T11:09:48Z</time>
      </trkpt>
      <trkpt lat="48.00043" lon="-2.28834">
        <ele>118.38</ele>
        <time>2016-07-06T11:10:18Z</time>
      </trkpt>
      <trkpt lat="48.00044" lon="-2.28865">
        <ele>114.53</ele>
        <time>2016-07-06T11:10:48Z</time>
      </trkpt>
      <trkpt lat="48.00062" lon="-2.28884">
        <ele>108.29</ele>
        <time>2016-07-06T11:11:18Z</time>
      </trkpt>
      <trkpt lat="48.00095" lon="-2.28861">
        <ele>103.48</ele>
        <time>2016-07-06T11:11:48Z</time>
      </trkpt>
      <trkpt lat="48.00113" lon="-2.28834">
        <ele>99.63</ele>
        <time>2016-07-06T11:12:18Z</time>
      </trkpt>
      <trkpt lat="48.00126" lon="-2.288">
        <ele>98.67</ele>
        <time>2016-07-06T11:12:48Z</time>
      </trkpt>
      <trkpt lat="48.00148" lon="-2.28778">
        <ele>93.87</ele>
        <time>2016-07-06T11:13:18Z</time>
      </trkpt>
      <trkpt lat="48.00155" lon="-2.28768">
        <ele>93.39</ele>
        <time>2016-07-06T11:13:48Z</time>
      </trkpt>
      <trkpt lat="48.00161" lon="-2.28764">
        <ele>93.39</ele>
        <time>2016-07-06T11:14:18Z</time>
      </trkpt>
      <trkpt lat="48.00159" lon="-2.28766">
        <ele>93.39</ele>
        <time>2016-07-06T11:14:48Z</time>
      </trkpt>
      <trkpt lat="48.00154" lon="-2.28777">
        <ele>92.9</ele>
        <time>2016-07-06T11:15:18Z</time>
      </trkpt>
      <trkpt lat="48.00155" lon="-2.28788">
        <ele>92.9</ele>
        <time>2016-07-06T11:15:48Z</time>
      </trkpt>
      <trkpt lat="48.00165" lon="-2.28831">
        <ele>91.94</ele>
        <time>2016-07-06T11:16:18Z</time>
      </trkpt>
      <trkpt lat="48.00177" lon="-2.28862">
        <ele>91.46</ele>
        <time>2016-07-06T11:16:48Z</time>
      </trkpt>
      <trkpt lat="48.00203" lon="-2.28898">
        <ele>90.98</ele>
        <time>2016-07-06T11:17:18Z</time>
      </trkpt>
      <trkpt lat="48.00237" lon="-2.28913">
        <ele>91.46</ele>
        <time>2016-07-06T11:17:48Z</time>
      </trkpt>
      <trkpt lat="48.00274" lon="-2.28905">
        <ele>90.98</ele>
        <time>2016-07-06T11:18:18Z</time>
      </trkpt>
      <trkpt lat="48.00305" lon="-2.28891">
        <ele>90.5</ele>
        <time>2016-07-06T11:18:48Z</time>
      </trkpt>
      <trkpt lat="48.00341" lon="-2.28875">
        <ele>90.98</ele>
        <time>2016-07-06T11:19:18Z</time>
      </trkpt>
      <trkpt lat="48.00375" lon="-2.28858">
        <ele>90.5</ele>
        <time>2016-07-06T11:19:48Z</time>
      </trkpt>
      <trkpt lat="48.00411" lon="-2.28841">
        <ele>90.5</ele>
        <time>2016-07-06T11:20:18Z</time>
      </trkpt>
      <trkpt lat="48.00439" lon="-2.28831">
        <ele>90.5</ele>
        <time>2016-07-06T11:20:48Z</time>
      </trkpt>
      <trkpt lat="48.00477" lon="-2.28811">
        <ele>90.5</ele>
        <time>2016-07-06T11:21:18Z</time>
      </trkpt>
      <trkpt lat="48.00514" lon="-2.28795">
        <ele>90.5</ele>
        <time>2016-07-06T11:21:48Z</time>
      </trkpt>
      <trkpt lat="48.00541" lon="-2.28755">
        <ele>90.02</ele>
        <time>2016-07-06T11:22:18Z</time>
      </trkpt>
      <trkpt lat="48.00561" lon="-2.28709">
        <ele>90.5</ele>
        <time>2016-07-06T11:22:48Z</time>
      </trkpt>
      <trkpt lat="48.00568" lon="-2.28671">
        <ele>90.98</ele>
        <time>2016-07-06T11:23:18Z</time>
      </trkpt>
      <trkpt lat="48.00569" lon="-2.28667">
        <ele>90.5</ele>
        <time>2016-07-06T11:23:48Z</time>
      </trkpt>
      <trkpt lat="48.00574" lon="-2.28668">
        <ele>90.98</ele>
        <time>2016-07-06T11:24:18Z</time>
      </trkpt>
      <trkpt lat="48.00572" lon="-2.28667">
        <ele>90.5</ele>
        <time>2016-07-06T11:24:48Z</time>
      </trkpt>
      <trkpt lat="48.00572" lon="-2.28667">
        <ele>90.98</ele>
        <time>2016-07-06T11:25:18Z</time>
      </trkpt>
      <trkpt lat="48.00574" lon="-2.28667">
        <ele>90.98</ele>
        <time>2016-07-06T11:25:48Z</time>
      </trkpt>
      <trkpt lat="48.00573" lon="-2.28666">
        <ele>91.94</ele>
        <time>2016-07-06T11:26:18Z</time>
      </trkpt>
    </trkseg>
  </trk>
</gpx>